sensor_id;sensor_type;location;lat;lon;timestamp;temperature;humidity
4874;DHT22;2451;49.970;9.068;2022-10-23T00:01:58;12.10;99.90
4874;DHT22;2451;49.970;9.068;2022-10-23T00:04:26;12.10;99.90
4874;DHT22;2451;49.970;9.068;2022-10-23T00:06:52;12.10;99.90
4874;DHT22;2451;49.970;9.068;2022-10-23T00:09:20;12.10;99.90
4874;DHT22;2451;49.970;9.068;2022-10-23T00:11:46;12.00;99.90
4874;DHT22;2451;49.970;9.068;2022-10-23T00:14:13;12.00;99.90
4874;DHT22;2451;49.970;9.068;2022-10-23T00:16:40;12.00;99.90
4874;DHT22;2451;49.970;9.068;2022-10-23T00:19:05;12.00;99.90
4874;DHT22;2451;49.970;9.068;2022-10-23T00:21:31;12.00;99.90
4874;DHT22;2451;49.970;9.068;2022-10-23T00:23:57;12.00;99.90
4874;DHT22;2451;49.970;9.068;2022-10-23T00:26:23;12.00;99.90
4874;DHT22;2451;49.970;9.068;2022-10-23T00:28:50;11.90;99.90
4874;DHT22;2451;49.970;9.068;2022-10-23T00:31:17;11.90;99.90
4874;DHT22;2451;49.970;9.068;2022-10-23T00:33:43;11.90;99.90
4874;DHT22;2451;49.970;9.068;2022-10-23T00:36:12;11.90;99.90
4874;DHT22;2451;49.970;9.068;2022-10-23T00:38:38;11.80;99.90
4874;DHT22;2451;49.970;9.068;2022-10-23T00:41:05;11.80;99.90
4874;DHT22;2451;49.970;9.068;2022-10-23T00:43:32;11.80;99.90
4874;DHT22;2451;49.970;9.068;2022-10-23T00:45:58;11.70;99.90
4874;DHT22;2451;49.970;9.068;2022-10-23T00:48:25;11.70;99.90
4874;DHT22;2451;49.970;9.068;2022-10-23T00:50:51;11.70;99.90
4874;DHT22;2451;49.970;9.068;2022-10-23T00:53:18;11.70;99.90
4874;DHT22;2451;49.970;9.068;2022-10-23T00:55:46;11.70;99.90
4874;DHT22;2451;49.970;9.068;2022-10-23T00:58:14;11.70;99.90
4874;DHT22;2451;49.970;9.068;2022-10-23T01:00:47;11.70;99.90
4874;DHT22;2451;49.970;9.068;2022-10-23T01:03:14;11.60;99.90
4874;DHT22;2451;49.970;9.068;2022-10-23T01:08:28;11.60;99.90
4874;DHT22;2451;49.970;9.068;2022-10-23T01:11:02;11.60;99.90
4874;DHT22;2451;49.970;9.068;2022-10-23T01:13:52;11.60;99.90
4874;DHT22;2451;49.970;9.068;2022-10-23T01:16:26;11.50;99.90
4874;DHT22;2451;49.970;9.068;2022-10-23T01:19:00;11.60;99.90
4874;DHT22;2451;49.970;9.068;2022-10-23T01:21:37;11.50;99.90
4874;DHT22;2451;49.970;9.068;2022-10-23T01:24:25;11.50;99.90
4874;DHT22;2451;49.970;9.068;2022-10-23T01:32:47;11.50;99.90
4874;DHT22;2451;49.970;9.068;2022-10-23T01:38:12;11.40;99.90
4874;DHT22;2451;49.970;9.068;2022-10-23T01:43:18;11.40;99.90
4874;DHT22;2451;49.970;9.068;2022-10-23T01:45:49;11.40;99.90
4874;DHT22;2451;49.970;9.068;2022-10-23T01:48:20;11.40;99.90
4874;DHT22;2451;49.970;9.068;2022-10-23T01:50:47;11.50;99.90
4874;DHT22;2451;49.970;9.068;2022-10-23T01:53:14;11.50;99.90
4874;DHT22;2451;49.970;9.068;2022-10-23T01:55:40;11.50;99.90
4874;DHT22;2451;49.970;9.068;2022-10-23T01:58:08;11.50;99.90
4874;DHT22;2451;49.970;9.068;2022-10-23T02:00:38;11.50;99.90
4874;DHT22;2451;49.970;9.068;2022-10-23T02:03:05;11.50;99.90
4874;DHT22;2451;49.970;9.068;2022-10-23T02:05:32;11.50;99.90
4874;DHT22;2451;49.970;9.068;2022-10-23T02:07:59;11.40;99.90
4874;DHT22;2451;49.970;9.068;2022-10-23T02:10:40;11.50;99.90
4874;DHT22;2451;49.970;9.068;2022-10-23T02:13:22;11.40;99.90
4874;DHT22;2451;49.970;9.068;2022-10-23T02:15:58;11.40;99.90
4874;DHT22;2451;49.970;9.068;2022-10-23T02:21:08;11.40;99.90
4874;DHT22;2451;49.970;9.068;2022-10-23T02:23:40;11.30;99.90
4874;DHT22;2451;49.970;9.068;2022-10-23T02:26:14;11.30;99.90
4874;DHT22;2451;49.970;9.068;2022-10-23T02:28:55;11.30;99.90
4874;DHT22;2451;49.970;9.068;2022-10-23T02:31:23;11.20;99.90
4874;DHT22;2451;49.970;9.068;2022-10-23T02:33:49;11.20;99.90
4874;DHT22;2451;49.970;9.068;2022-10-23T02:36:15;11.20;99.90
4874;DHT22;2451;49.970;9.068;2022-10-23T02:38:43;11.10;99.90
4874;DHT22;2451;49.970;9.068;2022-10-23T02:41:23;11.10;99.90
4874;DHT22;2451;49.970;9.068;2022-10-23T02:49:13;11.20;99.90
4874;DHT22;2451;49.970;9.068;2022-10-23T02:57:41;11.10;99.90
4874;DHT22;2451;49.970;9.068;2022-10-23T03:00:16;11.00;99.90
4874;DHT22;2451;49.970;9.068;2022-10-23T03:05:25;10.90;99.90
4874;DHT22;2451;49.970;9.068;2022-10-23T03:07:51;10.90;99.90
4874;DHT22;2451;49.970;9.068;2022-10-23T03:10:17;10.90;99.90
4874;DHT22;2451;49.970;9.068;2022-10-23T03:12:42;10.90;99.90
4874;DHT22;2451;49.970;9.068;2022-10-23T03:15:10;10.90;99.90
4874;DHT22;2451;49.970;9.068;2022-10-23T03:17:36;10.90;99.90
4874;DHT22;2451;49.970;9.068;2022-10-23T03:20:03;11.00;99.90
4874;DHT22;2451;49.970;9.068;2022-10-23T03:22:29;11.00;99.90
4874;DHT22;2451;49.970;9.068;2022-10-23T03:24:55;11.00;99.90
4874;DHT22;2451;49.970;9.068;2022-10-23T03:27:20;11.00;99.90
4874;DHT22;2451;49.970;9.068;2022-10-23T03:29:46;11.00;99.90
4874;DHT22;2451;49.970;9.068;2022-10-23T03:32:11;11.00;99.90
4874;DHT22;2451;49.970;9.068;2022-10-23T03:34:37;11.00;99.90
4874;DHT22;2451;49.970;9.068;2022-10-23T03:37:03;11.00;99.90
4874;DHT22;2451;49.970;9.068;2022-10-23T03:39:28;10.90;99.90
4874;DHT22;2451;49.970;9.068;2022-10-23T03:41:54;10.90;99.90
4874;DHT22;2451;49.970;9.068;2022-10-23T03:44:19;10.90;99.90
4874;DHT22;2451;49.970;9.068;2022-10-23T03:46:45;10.90;99.90
4874;DHT22;2451;49.970;9.068;2022-10-23T03:49:11;10.80;99.90
4874;DHT22;2451;49.970;9.068;2022-10-23T03:51:36;10.80;99.90
4874;DHT22;2451;49.970;9.068;2022-10-23T03:54:08;10.70;99.90
4874;DHT22;2451;49.970;9.068;2022-10-23T03:56:34;10.70;99.90
4874;DHT22;2451;49.970;9.068;2022-10-23T03:59:00;10.70;99.90
4874;DHT22;2451;49.970;9.068;2022-10-23T04:01:25;10.70;99.90
4874;DHT22;2451;49.970;9.068;2022-10-23T04:03:52;10.70;99.90
4874;DHT22;2451;49.970;9.068;2022-10-23T04:06:18;10.70;99.90
4874;DHT22;2451;49.970;9.068;2022-10-23T04:08:44;10.70;99.90
4874;DHT22;2451;49.970;9.068;2022-10-23T04:11:10;10.70;99.90
4874;DHT22;2451;49.970;9.068;2022-10-23T04:13:35;10.80;99.90
4874;DHT22;2451;49.970;9.068;2022-10-23T04:16:01;10.80;99.90
4874;DHT22;2451;49.970;9.068;2022-10-23T04:18:27;10.70;99.90
4874;DHT22;2451;49.970;9.068;2022-10-23T04:20:53;10.70;99.90
4874;DHT22;2451;49.970;9.068;2022-10-23T04:23:19;10.70;99.90
4874;DHT22;2451;49.970;9.068;2022-10-23T04:25:45;10.70;99.90
4874;DHT22;2451;49.970;9.068;2022-10-23T04:28:10;10.70;99.90
4874;DHT22;2451;49.970;9.068;2022-10-23T04:30:36;10.70;99.90
4874;DHT22;2451;49.970;9.068;2022-10-23T04:33:02;10.70;99.90
4874;DHT22;2451;49.970;9.068;2022-10-23T04:35:27;10.80;99.90
4874;DHT22;2451;49.970;9.068;2022-10-23T04:37:53;10.80;99.90
4874;DHT22;2451;49.970;9.068;2022-10-23T04:40:18;10.80;99.90
4874;DHT22;2451;49.970;9.068;2022-10-23T04:42:44;10.70;99.90
4874;DHT22;2451;49.970;9.068;2022-10-23T04:45:10;10.70;99.90
4874;DHT22;2451;49.970;9.068;2022-10-23T04:47:35;10.70;99.90
4874;DHT22;2451;49.970;9.068;2022-10-23T04:50:01;10.70;99.90
4874;DHT22;2451;49.970;9.068;2022-10-23T04:52:26;10.70;99.90
4874;DHT22;2451;49.970;9.068;2022-10-23T04:54:52;10.70;99.90
4874;DHT22;2451;49.970;9.068;2022-10-23T04:57:17;10.70;99.90
4874;DHT22;2451;49.970;9.068;2022-10-23T04:59:43;10.70;99.90
4874;DHT22;2451;49.970;9.068;2022-10-23T05:02:08;10.70;99.90
4874;DHT22;2451;49.970;9.068;2022-10-23T05:04:34;10.70;99.90
4874;DHT22;2451;49.970;9.068;2022-10-23T05:07:00;10.80;99.90
4874;DHT22;2451;49.970;9.068;2022-10-23T05:09:25;10.70;99.90
4874;DHT22;2451;49.970;9.068;2022-10-23T05:11:51;10.70;99.90
4874;DHT22;2451;49.970;9.068;2022-10-23T05:14:16;10.80;99.90
4874;DHT22;2451;49.970;9.068;2022-10-23T05:16:56;10.80;99.90
4874;DHT22;2451;49.970;9.068;2022-10-23T05:19:27;10.80;99.90
4874;DHT22;2451;49.970;9.068;2022-10-23T05:21:54;10.80;99.90
4874;DHT22;2451;49.970;9.068;2022-10-23T05:24:24;10.80;99.90
4874;DHT22;2451;49.970;9.068;2022-10-23T05:26:50;10.80;99.90
4874;DHT22;2451;49.970;9.068;2022-10-23T05:29:18;10.80;99.90
4874;DHT22;2451;49.970;9.068;2022-10-23T05:31:44;10.80;99.90
4874;DHT22;2451;49.970;9.068;2022-10-23T05:34:12;10.80;99.90
4874;DHT22;2451;49.970;9.068;2022-10-23T05:36:39;10.80;99.90
4874;DHT22;2451;49.970;9.068;2022-10-23T05:39:05;10.80;99.90
4874;DHT22;2451;49.970;9.068;2022-10-23T05:41:30;10.80;99.90
4874;DHT22;2451;49.970;9.068;2022-10-23T05:43:56;10.80;99.90
4874;DHT22;2451;49.970;9.068;2022-10-23T05:46:22;10.70;99.90
4874;DHT22;2451;49.970;9.068;2022-10-23T05:48:51;10.70;99.90
4874;DHT22;2451;49.970;9.068;2022-10-23T05:51:18;10.70;99.90
4874;DHT22;2451;49.970;9.068;2022-10-23T05:53:50;10.70;99.90
4874;DHT22;2451;49.970;9.068;2022-10-23T05:56:15;10.70;99.90
4874;DHT22;2451;49.970;9.068;2022-10-23T05:58:41;10.80;99.90
4874;DHT22;2451;49.970;9.068;2022-10-23T06:01:09;10.80;99.90
4874;DHT22;2451;49.970;9.068;2022-10-23T06:03:35;10.80;99.90
4874;DHT22;2451;49.970;9.068;2022-10-23T06:06:01;10.80;99.90
4874;DHT22;2451;49.970;9.068;2022-10-23T06:08:27;10.80;99.90
4874;DHT22;2451;49.970;9.068;2022-10-23T06:10:53;10.80;99.90
4874;DHT22;2451;49.970;9.068;2022-10-23T06:13:19;10.80;99.90
4874;DHT22;2451;49.970;9.068;2022-10-23T06:15:44;10.90;99.90
4874;DHT22;2451;49.970;9.068;2022-10-23T06:18:10;10.90;99.90
4874;DHT22;2451;49.970;9.068;2022-10-23T06:20:36;10.90;99.90
4874;DHT22;2451;49.970;9.068;2022-10-23T06:23:03;11.00;99.90
4874;DHT22;2451;49.970;9.068;2022-10-23T06:25:29;11.00;99.90
4874;DHT22;2451;49.970;9.068;2022-10-23T06:27:54;11.10;99.90
4874;DHT22;2451;49.970;9.068;2022-10-23T06:30:20;11.10;99.90
4874;DHT22;2451;49.970;9.068;2022-10-23T06:32:45;11.20;99.90
4874;DHT22;2451;49.970;9.068;2022-10-23T06:35:11;11.20;99.90
4874;DHT22;2451;49.970;9.068;2022-10-23T06:37:37;11.20;99.90
4874;DHT22;2451;49.970;9.068;2022-10-23T06:40:04;11.30;99.90
4874;DHT22;2451;49.970;9.068;2022-10-23T06:42:30;11.30;99.90
4874;DHT22;2451;49.970;9.068;2022-10-23T06:44:56;11.40;99.90
4874;DHT22;2451;49.970;9.068;2022-10-23T06:47:21;11.50;99.90
4874;DHT22;2451;49.970;9.068;2022-10-23T06:49:47;11.50;99.90
4874;DHT22;2451;49.970;9.068;2022-10-23T06:52:12;11.60;99.90
4874;DHT22;2451;49.970;9.068;2022-10-23T06:54:38;11.60;99.90
4874;DHT22;2451;49.970;9.068;2022-10-23T06:57:03;11.70;99.90
4874;DHT22;2451;49.970;9.068;2022-10-23T06:59:29;11.90;99.90
4874;DHT22;2451;49.970;9.068;2022-10-23T07:01:54;12.10;99.90
4874;DHT22;2451;49.970;9.068;2022-10-23T07:04:20;12.20;99.90
4874;DHT22;2451;49.970;9.068;2022-10-23T07:06:45;12.20;99.90
4874;DHT22;2451;49.970;9.068;2022-10-23T07:09:11;12.20;99.90
4874;DHT22;2451;49.970;9.068;2022-10-23T07:11:36;12.30;99.90
4874;DHT22;2451;49.970;9.068;2022-10-23T07:14:02;12.40;99.90
4874;DHT22;2451;49.970;9.068;2022-10-23T07:16:28;12.50;99.90
4874;DHT22;2451;49.970;9.068;2022-10-23T07:18:56;12.60;99.90
4874;DHT22;2451;49.970;9.068;2022-10-23T07:21:26;12.70;99.90
4874;DHT22;2451;49.970;9.068;2022-10-23T07:23:52;12.70;99.90
4874;DHT22;2451;49.970;9.068;2022-10-23T07:26:18;12.80;99.90
4874;DHT22;2451;49.970;9.068;2022-10-23T07:28:45;12.90;99.90
4874;DHT22;2451;49.970;9.068;2022-10-23T07:31:11;13.00;99.90
4874;DHT22;2451;49.970;9.068;2022-10-23T07:33:37;13.30;99.90
4874;DHT22;2451;49.970;9.068;2022-10-23T07:36:05;13.70;99.90
4874;DHT22;2451;49.970;9.068;2022-10-23T07:38:32;14.00;99.90
4874;DHT22;2451;49.970;9.068;2022-10-23T07:40:58;14.30;99.90
4874;DHT22;2451;49.970;9.068;2022-10-23T07:43:24;14.70;99.90
4874;DHT22;2451;49.970;9.068;2022-10-23T07:45:51;14.80;99.90
4874;DHT22;2451;49.970;9.068;2022-10-23T07:48:17;14.70;99.90
4874;DHT22;2451;49.970;9.068;2022-10-23T07:50:42;14.60;99.90
4874;DHT22;2451;49.970;9.068;2022-10-23T07:53:17;14.60;99.90
4874;DHT22;2451;49.970;9.068;2022-10-23T07:56:11;14.60;99.90
4874;DHT22;2451;49.970;9.068;2022-10-23T07:58:36;14.50;99.90
4874;DHT22;2451;49.970;9.068;2022-10-23T08:01:03;14.60;99.90
4874;DHT22;2451;49.970;9.068;2022-10-23T08:03:31;14.70;99.90
4874;DHT22;2451;49.970;9.068;2022-10-23T08:05:57;14.70;99.90
4874;DHT22;2451;49.970;9.068;2022-10-23T08:08:23;14.80;99.90
4874;DHT22;2451;49.970;9.068;2022-10-23T08:10:50;14.90;99.90
4874;DHT22;2451;49.970;9.068;2022-10-23T08:13:17;15.10;99.90
4874;DHT22;2451;49.970;9.068;2022-10-23T08:15:46;15.20;99.90
4874;DHT22;2451;49.970;9.068;2022-10-23T08:18:12;15.20;99.90
4874;DHT22;2451;49.970;9.068;2022-10-23T08:20:41;15.30;99.90
4874;DHT22;2451;49.970;9.068;2022-10-23T08:23:08;15.50;99.90
4874;DHT22;2451;49.970;9.068;2022-10-23T08:25:34;15.50;99.90
4874;DHT22;2451;49.970;9.068;2022-10-23T08:27:59;15.50;99.90
4874;DHT22;2451;49.970;9.068;2022-10-23T08:30:26;15.50;99.90
4874;DHT22;2451;49.970;9.068;2022-10-23T08:32:52;15.50;99.90
4874;DHT22;2451;49.970;9.068;2022-10-23T08:35:17;15.30;99.90
4874;DHT22;2451;49.970;9.068;2022-10-23T08:37:43;15.10;99.90
4874;DHT22;2451;49.970;9.068;2022-10-23T08:40:18;15.00;99.90
4874;DHT22;2451;49.970;9.068;2022-10-23T08:42:52;14.90;99.90
4874;DHT22;2451;49.970;9.068;2022-10-23T08:47:53;14.80;99.90
4874;DHT22;2451;49.970;9.068;2022-10-23T08:50:29;14.90;99.90
4874;DHT22;2451;49.970;9.068;2022-10-23T08:56:00;15.30;99.90
4874;DHT22;2451;49.970;9.068;2022-10-23T09:01:43;15.30;99.90
4874;DHT22;2451;49.970;9.068;2022-10-23T09:04:13;15.40;99.90
4874;DHT22;2451;49.970;9.068;2022-10-23T09:09:53;15.40;99.90
4874;DHT22;2451;49.970;9.068;2022-10-23T09:12:26;15.50;99.90
4874;DHT22;2451;49.970;9.068;2022-10-23T09:17:58;15.80;99.90
4874;DHT22;2451;49.970;9.068;2022-10-23T09:20:33;15.90;99.90
4874;DHT22;2451;49.970;9.068;2022-10-23T09:23:14;16.10;99.90
4874;DHT22;2451;49.970;9.068;2022-10-23T09:25:41;16.30;99.90
4874;DHT22;2451;49.970;9.068;2022-10-23T09:28:19;16.40;99.90
4874;DHT22;2451;49.970;9.068;2022-10-23T09:30:46;16.70;99.90
4874;DHT22;2451;49.970;9.068;2022-10-23T09:33:24;17.10;99.90
4874;DHT22;2451;49.970;9.068;2022-10-23T09:38:34;17.10;99.90
4874;DHT22;2451;49.970;9.068;2022-10-23T09:41:20;17.00;99.90
4874;DHT22;2451;49.970;9.068;2022-10-23T09:43:58;16.80;99.90
4874;DHT22;2451;49.970;9.068;2022-10-23T09:46:23;16.70;99.90
4874;DHT22;2451;49.970;9.068;2022-10-23T09:48:56;16.60;99.90
4874;DHT22;2451;49.970;9.068;2022-10-23T09:51:22;16.60;99.90
4874;DHT22;2451;49.970;9.068;2022-10-23T09:53:52;16.50;99.90
4874;DHT22;2451;49.970;9.068;2022-10-23T09:56:35;16.50;99.90
4874;DHT22;2451;49.970;9.068;2022-10-23T09:59:25;16.70;99.90
4874;DHT22;2451;49.970;9.068;2022-10-23T10:01:54;16.90;99.90
4874;DHT22;2451;49.970;9.068;2022-10-23T10:04:38;17.10;99.90
4874;DHT22;2451;49.970;9.068;2022-10-23T10:07:16;17.30;99.90
4874;DHT22;2451;49.970;9.068;2022-10-23T10:09:42;17.60;99.90
4874;DHT22;2451;49.970;9.068;2022-10-23T10:12:18;17.70;99.90
4874;DHT22;2451;49.970;9.068;2022-10-23T10:14:51;17.80;99.90
4874;DHT22;2451;49.970;9.068;2022-10-23T10:17:29;17.80;99.90
4874;DHT22;2451;49.970;9.068;2022-10-23T10:22:52;17.60;99.90
4874;DHT22;2451;49.970;9.068;2022-10-23T10:33:39;17.50;99.90
4874;DHT22;2451;49.970;9.068;2022-10-23T10:39:43;17.70;99.90
4874;DHT22;2451;49.970;9.068;2022-10-23T10:42:39;17.70;99.90
4874;DHT22;2451;49.970;9.068;2022-10-23T10:50:46;17.40;99.90
4874;DHT22;2451;49.970;9.068;2022-10-23T10:53:32;17.30;99.90
4874;DHT22;2451;49.970;9.068;2022-10-23T10:56:02;17.20;99.90
4874;DHT22;2451;49.970;9.068;2022-10-23T10:58:40;17.20;99.90
4874;DHT22;2451;49.970;9.068;2022-10-23T11:06:45;17.10;99.90
4874;DHT22;2451;49.970;9.068;2022-10-23T11:09:26;17.10;99.90
4874;DHT22;2451;49.970;9.068;2022-10-23T11:11:52;17.20;99.90
4874;DHT22;2451;49.970;9.068;2022-10-23T11:14:35;17.10;99.90
4874;DHT22;2451;49.970;9.068;2022-10-23T11:17:11;17.10;99.90
4874;DHT22;2451;49.970;9.068;2022-10-23T11:19:58;17.10;99.90
4874;DHT22;2451;49.970;9.068;2022-10-23T11:28:02;17.00;99.90
4874;DHT22;2451;49.970;9.068;2022-10-23T11:38:45;17.30;99.90
4874;DHT22;2451;49.970;9.068;2022-10-23T11:41:26;17.50;99.90
4874;DHT22;2451;49.970;9.068;2022-10-23T11:43:58;17.70;99.90
4874;DHT22;2451;49.970;9.068;2022-10-23T11:46:36;18.00;99.90
4874;DHT22;2451;49.970;9.068;2022-10-23T11:49:04;18.10;99.90
4874;DHT22;2451;49.970;9.068;2022-10-23T11:51:43;18.10;99.90
4874;DHT22;2451;49.970;9.068;2022-10-23T11:54:21;18.10;99.90
4874;DHT22;2451;49.970;9.068;2022-10-23T11:57:12;18.20;99.90
4874;DHT22;2451;49.970;9.068;2022-10-23T12:02:35;18.10;99.90
4874;DHT22;2451;49.970;9.068;2022-10-23T12:05:05;18.20;99.90
4874;DHT22;2451;49.970;9.068;2022-10-23T12:07:39;18.20;99.90
4874;DHT22;2451;49.970;9.068;2022-10-23T12:10:42;18.20;99.90
4874;DHT22;2451;49.970;9.068;2022-10-23T12:13:50;18.10;99.90
4874;DHT22;2451;49.970;9.068;2022-10-23T12:16:14;18.10;99.90
4874;DHT22;2451;49.970;9.068;2022-10-23T12:18:51;18.10;99.90
4874;DHT22;2451;49.970;9.068;2022-10-23T12:21:19;18.20;99.90
4874;DHT22;2451;49.970;9.068;2022-10-23T12:24:41;18.20;99.90
4874;DHT22;2451;49.970;9.068;2022-10-23T12:27:07;18.10;99.90
4874;DHT22;2451;49.970;9.068;2022-10-23T12:32:42;18.10;99.90
4874;DHT22;2451;49.970;9.068;2022-10-23T12:40:23;19.50;99.90
4874;DHT22;2451;49.970;9.068;2022-10-23T12:42:55;19.90;99.90
4874;DHT22;2451;49.970;9.068;2022-10-23T12:47:49;20.30;99.90
4874;DHT22;2451;49.970;9.068;2022-10-23T12:50:22;20.20;99.90
4874;DHT22;2451;49.970;9.068;2022-10-23T12:53:05;20.10;99.90
4874;DHT22;2451;49.970;9.068;2022-10-23T12:55:48;20.30;99.90
4874;DHT22;2451;49.970;9.068;2022-10-23T12:58:30;20.70;99.90
4874;DHT22;2451;49.970;9.068;2022-10-23T13:00:59;20.70;99.90
4874;DHT22;2451;49.970;9.068;2022-10-23T13:03:27;20.60;99.90
4874;DHT22;2451;49.970;9.068;2022-10-23T13:05:55;20.30;99.90
4874;DHT22;2451;49.970;9.068;2022-10-23T13:08:28;20.10;99.90
4874;DHT22;2451;49.970;9.068;2022-10-23T13:10:56;20.10;99.90
4874;DHT22;2451;49.970;9.068;2022-10-23T13:13:23;20.00;99.90
4874;DHT22;2451;49.970;9.068;2022-10-23T13:15:49;20.10;99.90
4874;DHT22;2451;49.970;9.068;2022-10-23T13:18:16;20.20;99.90
4874;DHT22;2451;49.970;9.068;2022-10-23T13:20:55;20.30;99.90
4874;DHT22;2451;49.970;9.068;2022-10-23T13:26:01;20.40;99.90
4874;DHT22;2451;49.970;9.068;2022-10-23T13:28:40;20.40;99.90
4874;DHT22;2451;49.970;9.068;2022-10-23T13:31:24;20.30;99.90
4874;DHT22;2451;49.970;9.068;2022-10-23T13:36:26;20.00;99.90
4874;DHT22;2451;49.970;9.068;2022-10-23T13:41:27;19.90;99.90
4874;DHT22;2451;49.970;9.068;2022-10-23T13:43:53;19.80;99.90
4874;DHT22;2451;49.970;9.068;2022-10-23T13:46:21;19.70;99.90
4874;DHT22;2451;49.970;9.068;2022-10-23T13:48:47;19.70;99.90
4874;DHT22;2451;49.970;9.068;2022-10-23T13:51:34;19.70;99.90
4874;DHT22;2451;49.970;9.068;2022-10-23T13:54:01;19.80;99.90
4874;DHT22;2451;49.970;9.068;2022-10-23T13:56:27;19.90;99.90
4874;DHT22;2451;49.970;9.068;2022-10-23T13:58:53;19.90;99.90
4874;DHT22;2451;49.970;9.068;2022-10-23T14:01:31;19.90;99.90
4874;DHT22;2451;49.970;9.068;2022-10-23T14:03:57;19.90;99.90
4874;DHT22;2451;49.970;9.068;2022-10-23T14:06:24;19.80;99.90
4874;DHT22;2451;49.970;9.068;2022-10-23T14:08:50;19.70;99.90
4874;DHT22;2451;49.970;9.068;2022-10-23T14:11:18;19.70;99.90
4874;DHT22;2451;49.970;9.068;2022-10-23T14:13:44;19.60;99.90
4874;DHT22;2451;49.970;9.068;2022-10-23T14:16:14;19.60;99.90
4874;DHT22;2451;49.970;9.068;2022-10-23T14:18:40;19.60;99.90
4874;DHT22;2451;49.970;9.068;2022-10-23T14:21:09;19.50;99.90
4874;DHT22;2451;49.970;9.068;2022-10-23T14:23:35;19.40;99.90
4874;DHT22;2451;49.970;9.068;2022-10-23T14:26:06;19.40;99.90
4874;DHT22;2451;49.970;9.068;2022-10-23T14:28:32;19.40;99.90
4874;DHT22;2451;49.970;9.068;2022-10-23T14:31:03;19.40;99.90
4874;DHT22;2451;49.970;9.068;2022-10-23T14:33:28;19.30;99.90
4874;DHT22;2451;49.970;9.068;2022-10-23T14:35:54;19.30;99.90
4874;DHT22;2451;49.970;9.068;2022-10-23T14:38:20;19.30;99.90
4874;DHT22;2451;49.970;9.068;2022-10-23T14:40:45;19.30;99.90
4874;DHT22;2451;49.970;9.068;2022-10-23T14:43:11;19.30;99.90
4874;DHT22;2451;49.970;9.068;2022-10-23T14:45:36;19.20;99.90
4874;DHT22;2451;49.970;9.068;2022-10-23T14:48:02;19.20;99.90
4874;DHT22;2451;49.970;9.068;2022-10-23T14:50:30;19.20;99.90
4874;DHT22;2451;49.970;9.068;2022-10-23T14:52:56;19.10;99.90
4874;DHT22;2451;49.970;9.068;2022-10-23T14:55:21;19.10;99.90
4874;DHT22;2451;49.970;9.068;2022-10-23T14:57:47;19.10;99.90
4874;DHT22;2451;49.970;9.068;2022-10-23T15:00:13;19.00;99.90
4874;DHT22;2451;49.970;9.068;2022-10-23T15:02:39;18.90;99.90
4874;DHT22;2451;49.970;9.068;2022-10-23T15:05:04;18.90;99.90
4874;DHT22;2451;49.970;9.068;2022-10-23T15:07:30;18.90;99.90
4874;DHT22;2451;49.970;9.068;2022-10-23T15:09:56;18.80;99.90
4874;DHT22;2451;49.970;9.068;2022-10-23T15:12:22;18.80;99.90
4874;DHT22;2451;49.970;9.068;2022-10-23T15:14:48;18.70;99.90
4874;DHT22;2451;49.970;9.068;2022-10-23T15:17:14;18.70;99.90
4874;DHT22;2451;49.970;9.068;2022-10-23T15:19:39;18.60;99.90
4874;DHT22;2451;49.970;9.068;2022-10-23T15:22:05;18.60;99.90
4874;DHT22;2451;49.970;9.068;2022-10-23T15:24:31;18.60;99.90
4874;DHT22;2451;49.970;9.068;2022-10-23T15:26:56;18.60;99.90
4874;DHT22;2451;49.970;9.068;2022-10-23T15:29:22;18.60;99.90
4874;DHT22;2451;49.970;9.068;2022-10-23T15:31:52;18.60;99.90
4874;DHT22;2451;49.970;9.068;2022-10-23T15:34:21;18.50;99.90
4874;DHT22;2451;49.970;9.068;2022-10-23T15:36:47;18.50;99.90
4874;DHT22;2451;49.970;9.068;2022-10-23T15:39:16;18.50;99.90
4874;DHT22;2451;49.970;9.068;2022-10-23T15:41:42;18.40;99.90
4874;DHT22;2451;49.970;9.068;2022-10-23T15:44:11;18.40;99.90
4874;DHT22;2451;49.970;9.068;2022-10-23T15:46:37;18.30;99.90
4874;DHT22;2451;49.970;9.068;2022-10-23T15:49:03;18.30;99.90
4874;DHT22;2451;49.970;9.068;2022-10-23T15:51:30;18.30;99.90
4874;DHT22;2451;49.970;9.068;2022-10-23T15:53:55;18.20;99.90
4874;DHT22;2451;49.970;9.068;2022-10-23T15:56:25;18.20;99.90
4874;DHT22;2451;49.970;9.068;2022-10-23T15:58:50;18.20;99.90
4874;DHT22;2451;49.970;9.068;2022-10-23T16:01:16;18.10;99.90
4874;DHT22;2451;49.970;9.068;2022-10-23T16:03:42;18.10;99.90
4874;DHT22;2451;49.970;9.068;2022-10-23T16:06:10;18.00;99.90
4874;DHT22;2451;49.970;9.068;2022-10-23T16:08:36;18.00;99.90
4874;DHT22;2451;49.970;9.068;2022-10-23T16:11:03;18.00;99.90
4874;DHT22;2451;49.970;9.068;2022-10-23T16:13:29;18.00;99.90
4874;DHT22;2451;49.970;9.068;2022-10-23T16:15:54;17.90;99.90
4874;DHT22;2451;49.970;9.068;2022-10-23T16:18:21;17.90;99.90
4874;DHT22;2451;49.970;9.068;2022-10-23T16:20:46;17.90;99.90
4874;DHT22;2451;49.970;9.068;2022-10-23T16:23:12;17.80;99.90
4874;DHT22;2451;49.970;9.068;2022-10-23T16:25:38;17.80;99.90
4874;DHT22;2451;49.970;9.068;2022-10-23T16:28:04;17.80;99.90
4874;DHT22;2451;49.970;9.068;2022-10-23T16:30:30;17.70;99.90
4874;DHT22;2451;49.970;9.068;2022-10-23T16:32:55;17.70;99.90
4874;DHT22;2451;49.970;9.068;2022-10-23T16:35:21;17.70;99.90
4874;DHT22;2451;49.970;9.068;2022-10-23T16:37:47;17.70;99.90
4874;DHT22;2451;49.970;9.068;2022-10-23T16:40:13;17.60;99.90
4874;DHT22;2451;49.970;9.068;2022-10-23T16:42:39;17.60;99.90
4874;DHT22;2451;49.970;9.068;2022-10-23T16:45:06;17.60;99.90
4874;DHT22;2451;49.970;9.068;2022-10-23T16:47:33;17.50;99.90
4874;DHT22;2451;49.970;9.068;2022-10-23T16:49:59;17.50;99.90
4874;DHT22;2451;49.970;9.068;2022-10-23T16:52:26;17.50;99.90
4874;DHT22;2451;49.970;9.068;2022-10-23T16:54:52;17.40;99.90
4874;DHT22;2451;49.970;9.068;2022-10-23T16:57:17;17.40;99.90
4874;DHT22;2451;49.970;9.068;2022-10-23T16:59:43;17.40;99.90
4874;DHT22;2451;49.970;9.068;2022-10-23T17:02:12;17.40;99.90
4874;DHT22;2451;49.970;9.068;2022-10-23T17:04:38;17.30;99.90
4874;DHT22;2451;49.970;9.068;2022-10-23T17:07:05;17.30;99.90
4874;DHT22;2451;49.970;9.068;2022-10-23T17:09:30;17.30;99.90
4874;DHT22;2451;49.970;9.068;2022-10-23T17:11:57;17.20;99.90
4874;DHT22;2451;49.970;9.068;2022-10-23T17:14:24;17.30;99.90
4874;DHT22;2451;49.970;9.068;2022-10-23T17:16:58;17.20;99.90
4874;DHT22;2451;49.970;9.068;2022-10-23T17:19:26;17.20;99.90
4874;DHT22;2451;49.970;9.068;2022-10-23T17:21:53;17.20;99.90
4874;DHT22;2451;49.970;9.068;2022-10-23T17:24:19;17.20;99.90
4874;DHT22;2451;49.970;9.068;2022-10-23T17:26:45;17.20;99.90
4874;DHT22;2451;49.970;9.068;2022-10-23T17:29:11;17.20;99.90
4874;DHT22;2451;49.970;9.068;2022-10-23T17:31:43;17.20;99.90
4874;DHT22;2451;49.970;9.068;2022-10-23T17:34:17;17.20;99.90
4874;DHT22;2451;49.970;9.068;2022-10-23T17:36:45;17.20;99.90
4874;DHT22;2451;49.970;9.068;2022-10-23T17:39:13;17.20;99.90
4874;DHT22;2451;49.970;9.068;2022-10-23T17:41:40;17.20;99.90
4874;DHT22;2451;49.970;9.068;2022-10-23T17:44:06;17.20;99.90
4874;DHT22;2451;49.970;9.068;2022-10-23T17:46:32;17.20;99.90
4874;DHT22;2451;49.970;9.068;2022-10-23T17:48:59;17.20;99.90
4874;DHT22;2451;49.970;9.068;2022-10-23T17:51:28;17.10;99.90
4874;DHT22;2451;49.970;9.068;2022-10-23T17:53:58;17.10;99.90
4874;DHT22;2451;49.970;9.068;2022-10-23T17:56:26;17.20;99.90
4874;DHT22;2451;49.970;9.068;2022-10-23T17:58:57;17.20;99.90
4874;DHT22;2451;49.970;9.068;2022-10-23T18:01:26;17.20;99.90
4874;DHT22;2451;49.970;9.068;2022-10-23T18:03:54;17.20;99.90